sensor_id;sensor_type;location;lat;lon;timestamp;pressure;altitude;pressure_sealevel;temperature;humidity
4199;BME280;2113;50.946;14.610;2023-02-11T00:01:19;57013.78;;;-145.60;100.00
4199;BME280;2113;50.946;14.610;2023-02-11T00:03:47;57013.78;;;-145.60;100.00
4199;BME280;2113;50.946;14.610;2023-02-11T00:06:16;57013.78;;;-145.60;100.00
4199;BME280;2113;50.946;14.610;2023-02-11T00:08:45;57013.78;;;-145.60;100.00
4199;BME280;2113;50.946;14.610;2023-02-11T00:11:17;57013.78;;;-145.60;100.00
4199;BME280;2113;50.946;14.610;2023-02-11T00:13:45;57013.78;;;-145.60;100.00
4199;BME280;2113;50.946;14.610;2023-02-11T00:16:15;57013.78;;;-145.60;100.00
4199;BME280;2113;50.946;14.610;2023-02-11T00:18:44;57013.78;;;-145.60;100.00
4199;BME280;2113;50.946;14.610;2023-02-11T00:21:14;57013.78;;;-145.60;100.00
4199;BME280;2113;50.946;14.610;2023-02-11T00:23:43;57013.78;;;-145.60;100.00
4199;BME280;2113;50.946;14.610;2023-02-11T00:26:12;57013.78;;;-145.60;100.00
4199;BME280;2113;50.946;14.610;2023-02-11T00:28:43;57013.78;;;-145.60;100.00
4199;BME280;2113;50.946;14.610;2023-02-11T00:31:12;57013.78;;;-145.60;100.00
4199;BME280;2113;50.946;14.610;2023-02-11T00:33:41;57013.78;;;-145.60;100.00
4199;BME280;2113;50.946;14.610;2023-02-11T00:36:13;57013.78;;;-145.60;100.00
4199;BME280;2113;50.946;14.610;2023-02-11T00:38:47;57013.78;;;-145.60;100.00
4199;BME280;2113;50.946;14.610;2023-02-11T00:41:16;57013.78;;;-145.60;100.00
4199;BME280;2113;50.946;14.610;2023-02-11T00:43:47;57013.78;;;-145.60;100.00
4199;BME280;2113;50.946;14.610;2023-02-11T00:46:18;57013.78;;;-145.60;100.00
4199;BME280;2113;50.946;14.610;2023-02-11T00:48:46;57013.78;;;-145.60;100.00
4199;BME280;2113;50.946;14.610;2023-02-11T00:51:14;57013.78;;;-145.60;100.00
4199;BME280;2113;50.946;14.610;2023-02-11T00:53:43;57013.78;;;-145.60;100.00
4199;BME280;2113;50.946;14.610;2023-02-11T00:56:11;57013.78;;;-145.60;100.00
4199;BME280;2113;50.946;14.610;2023-02-11T00:58:39;57013.78;;;-145.60;100.00
4199;BME280;2113;50.946;14.610;2023-02-11T01:01:10;57013.78;;;-145.60;100.00
4199;BME280;2113;50.946;14.610;2023-02-11T01:03:39;57013.78;;;-145.60;100.00
4199;BME280;2113;50.946;14.610;2023-02-11T01:06:08;57013.78;;;-145.60;100.00
4199;BME280;2113;50.946;14.610;2023-02-11T01:08:37;57013.78;;;-145.60;100.00
4199;BME280;2113;50.946;14.610;2023-02-11T01:11:11;57013.78;;;-145.60;100.00
4199;BME280;2113;50.946;14.610;2023-02-11T01:13:40;57013.78;;;-145.60;100.00
4199;BME280;2113;50.946;14.610;2023-02-11T01:16:10;57013.78;;;-145.60;100.00
4199;BME280;2113;50.946;14.610;2023-02-11T01:18:38;57013.78;;;-145.60;100.00
4199;BME280;2113;50.946;14.610;2023-02-11T01:21:08;57013.78;;;-145.60;100.00
4199;BME280;2113;50.946;14.610;2023-02-11T01:23:36;57013.78;;;-145.60;100.00
4199;BME280;2113;50.946;14.610;2023-02-11T01:26:04;57013.78;;;-145.60;100.00
4199;BME280;2113;50.946;14.610;2023-02-11T01:28:32;57013.78;;;-145.60;100.00
4199;BME280;2113;50.946;14.610;2023-02-11T01:31:01;57013.78;;;-145.60;100.00
4199;BME280;2113;50.946;14.610;2023-02-11T01:33:33;57013.78;;;-145.60;100.00
4199;BME280;2113;50.946;14.610;2023-02-11T01:36:01;57013.78;;;-145.60;100.00
4199;BME280;2113;50.946;14.610;2023-02-11T01:38:31;57013.78;;;-145.60;100.00
4199;BME280;2113;50.946;14.610;2023-02-11T01:41:01;57013.78;;;-145.60;100.00
4199;BME280;2113;50.946;14.610;2023-02-11T01:43:33;57013.78;;;-145.60;100.00
4199;BME280;2113;50.946;14.610;2023-02-11T01:46:19;57013.78;;;-145.60;100.00
4199;BME280;2113;50.946;14.610;2023-02-11T01:48:54;57013.78;;;-145.60;100.00
4199;BME280;2113;50.946;14.610;2023-02-11T01:51:25;57013.78;;;-145.60;100.00
4199;BME280;2113;50.946;14.610;2023-02-11T01:53:55;57013.78;;;-145.60;100.00
4199;BME280;2113;50.946;14.610;2023-02-11T01:56:46;57013.78;;;-145.60;100.00
4199;BME280;2113;50.946;14.610;2023-02-11T01:59:38;57013.78;;;-145.60;100.00
4199;BME280;2113;50.946;14.610;2023-02-11T02:02:10;57013.78;;;-145.60;100.00
4199;BME280;2113;50.946;14.610;2023-02-11T02:04:45;57013.78;;;-145.60;100.00
4199;BME280;2113;50.946;14.610;2023-02-11T02:07:21;57013.78;;;-145.60;100.00
4199;BME280;2113;50.946;14.610;2023-02-11T02:09:58;57013.78;;;-145.60;100.00
4199;BME280;2113;50.946;14.610;2023-02-11T02:12:27;57013.78;;;-145.60;100.00
4199;BME280;2113;50.946;14.610;2023-02-11T02:15:21;57013.78;;;-145.60;100.00
4199;BME280;2113;50.946;14.610;2023-02-11T02:17:58;57013.78;;;-145.60;100.00
4199;BME280;2113;50.946;14.610;2023-02-11T02:21:02;57013.78;;;-145.60;100.00
4199;BME280;2113;50.946;14.610;2023-02-11T02:23:48;57013.78;;;-145.60;100.00
4199;BME280;2113;50.946;14.610;2023-02-11T02:26:52;57013.78;;;-145.60;100.00
4199;BME280;2113;50.946;14.610;2023-02-11T02:35:53;57013.78;;;-145.60;100.00
4199;BME280;2113;50.946;14.610;2023-02-11T02:38:26;57013.78;;;-145.60;100.00
4199;BME280;2113;50.946;14.610;2023-02-11T02:40:58;57013.78;;;-145.60;100.00
4199;BME280;2113;50.946;14.610;2023-02-11T02:43:29;57013.78;;;-145.60;100.00
4199;BME280;2113;50.946;14.610;2023-02-11T02:46:13;57013.78;;;-145.60;100.00
4199;BME280;2113;50.946;14.610;2023-02-11T02:48:42;57013.78;;;-145.60;100.00
4199;BME280;2113;50.946;14.610;2023-02-11T02:51:26;57013.78;;;-145.60;100.00
4199;BME280;2113;50.946;14.610;2023-02-11T02:54:20;57013.78;;;-145.60;100.00
4199;BME280;2113;50.946;14.610;2023-02-11T02:57:00;57013.78;;;-145.60;100.00
4199;BME280;2113;50.946;14.610;2023-02-11T02:59:42;57013.78;;;-145.60;100.00
4199;BME280;2113;50.946;14.610;2023-02-11T03:02:19;57013.78;;;-145.60;100.00
4199;BME280;2113;50.946;14.610;2023-02-11T03:04:56;57013.78;;;-145.60;100.00
4199;BME280;2113;50.946;14.610;2023-02-11T03:07:33;57013.78;;;-145.60;100.00
4199;BME280;2113;50.946;14.610;2023-02-11T03:10:07;57013.78;;;-145.60;100.00
4199;BME280;2113;50.946;14.610;2023-02-11T03:12:36;57013.78;;;-145.60;100.00
4199;BME280;2113;50.946;14.610;2023-02-11T03:15:06;57013.78;;;-145.60;100.00
4199;BME280;2113;50.946;14.610;2023-02-11T03:17:35;57013.78;;;-145.60;100.00
4199;BME280;2113;50.946;14.610;2023-02-11T03:20:09;57013.78;;;-145.60;100.00
4199;BME280;2113;50.946;14.610;2023-02-11T03:22:46;57013.78;;;-145.60;100.00
4199;BME280;2113;50.946;14.610;2023-02-11T03:25:15;57013.78;;;-145.60;100.00
4199;BME280;2113;50.946;14.610;2023-02-11T03:27:49;57013.78;;;-145.60;100.00
4199;BME280;2113;50.946;14.610;2023-02-11T03:30:21;57013.78;;;-145.60;100.00
4199;BME280;2113;50.946;14.610;2023-02-11T03:32:55;57013.78;;;-145.60;100.00
4199;BME280;2113;50.946;14.610;2023-02-11T03:35:27;57013.78;;;-145.60;100.00
4199;BME280;2113;50.946;14.610;2023-02-11T03:38:03;57013.78;;;-145.60;100.00
4199;BME280;2113;50.946;14.610;2023-02-11T03:40:36;57013.78;;;-145.60;100.00
4199;BME280;2113;50.946;14.610;2023-02-11T03:43:07;57013.78;;;-145.60;100.00
4199;BME280;2113;50.946;14.610;2023-02-11T03:45:37;57013.78;;;-145.60;100.00
4199;BME280;2113;50.946;14.610;2023-02-11T03:48:11;57013.78;;;-145.60;100.00
4199;BME280;2113;50.946;14.610;2023-02-11T03:50:42;57013.78;;;-145.60;100.00
4199;BME280;2113;50.946;14.610;2023-02-11T03:53:14;57013.78;;;-145.60;100.00
4199;BME280;2113;50.946;14.610;2023-02-11T03:55:43;57013.78;;;-145.60;100.00
4199;BME280;2113;50.946;14.610;2023-02-11T03:58:13;57013.78;;;-145.60;100.00
4199;BME280;2113;50.946;14.610;2023-02-11T04:00:42;57013.78;;;-145.60;100.00
4199;BME280;2113;50.946;14.610;2023-02-11T04:03:11;57013.78;;;-145.60;100.00
4199;BME280;2113;50.946;14.610;2023-02-11T04:05:39;57013.78;;;-145.60;100.00
4199;BME280;2113;50.946;14.610;2023-02-11T04:08:08;57013.78;;;-145.60;100.00
4199;BME280;2113;50.946;14.610;2023-02-11T04:10:38;57013.78;;;-145.60;100.00
4199;BME280;2113;50.946;14.610;2023-02-11T04:13:06;57013.78;;;-145.60;100.00
4199;BME280;2113;50.946;14.610;2023-02-11T04:15:34;57013.78;;;-145.60;100.00
4199;BME280;2113;50.946;14.610;2023-02-11T04:18:03;57013.78;;;-145.60;100.00
4199;BME280;2113;50.946;14.610;2023-02-11T04:20:31;57013.78;;;-145.60;100.00
4199;BME280;2113;50.946;14.610;2023-02-11T04:22:59;57013.78;;;-145.60;100.00
4199;BME280;2113;50.946;14.610;2023-02-11T04:25:28;57013.78;;;-145.60;100.00
4199;BME280;2113;50.946;14.610;2023-02-11T04:27:57;57013.78;;;-145.60;100.00
4199;BME280;2113;50.946;14.610;2023-02-11T04:30:26;57013.78;;;-145.60;100.00
4199;BME280;2113;50.946;14.610;2023-02-11T04:32:54;57013.78;;;-145.60;100.00
4199;BME280;2113;50.946;14.610;2023-02-11T04:35:22;57013.78;;;-145.60;100.00
4199;BME280;2113;50.946;14.610;2023-02-11T04:37:50;57013.78;;;-145.60;100.00
4199;BME280;2113;50.946;14.610;2023-02-11T04:40:18;57013.78;;;-145.60;100.00
4199;BME280;2113;50.946;14.610;2023-02-11T04:42:47;57013.78;;;-145.60;100.00
4199;BME280;2113;50.946;14.610;2023-02-11T04:45:16;57013.78;;;-145.60;100.00
4199;BME280;2113;50.946;14.610;2023-02-11T04:47:44;57013.78;;;-145.60;100.00
4199;BME280;2113;50.946;14.610;2023-02-11T04:50:13;57013.78;;;-145.60;100.00
4199;BME280;2113;50.946;14.610;2023-02-11T04:52:41;57013.78;;;-145.60;100.00
4199;BME280;2113;50.946;14.610;2023-02-11T04:55:10;57013.78;;;-145.60;100.00
4199;BME280;2113;50.946;14.610;2023-02-11T04:57:38;57013.78;;;-145.60;100.00
4199;BME280;2113;50.946;14.610;2023-02-11T05:00:08;57013.78;;;-145.60;100.00
4199;BME280;2113;50.946;14.610;2023-02-11T05:02:38;57013.78;;;-145.60;100.00
4199;BME280;2113;50.946;14.610;2023-02-11T05:05:07;57013.78;;;-145.60;100.00
4199;BME280;2113;50.946;14.610;2023-02-11T05:07:35;57013.78;;;-145.60;100.00
4199;BME280;2113;50.946;14.610;2023-02-11T05:10:04;57013.78;;;-145.60;100.00
4199;BME280;2113;50.946;14.610;2023-02-11T05:12:32;57013.78;;;-145.60;100.00
4199;BME280;2113;50.946;14.610;2023-02-11T05:15:00;57013.78;;;-145.60;100.00
4199;BME280;2113;50.946;14.610;2023-02-11T05:17:28;57013.78;;;-145.60;100.00
4199;BME280;2113;50.946;14.610;2023-02-11T05:19:57;57013.78;;;-145.60;100.00
4199;BME280;2113;50.946;14.610;2023-02-11T05:22:26;57013.78;;;-145.60;100.00
4199;BME280;2113;50.946;14.610;2023-02-11T05:24:54;57013.78;;;-145.60;100.00
4199;BME280;2113;50.946;14.610;2023-02-11T05:27:22;57013.78;;;-145.60;100.00
4199;BME280;2113;50.946;14.610;2023-02-11T05:29:50;57013.78;;;-145.60;100.00
4199;BME280;2113;50.946;14.610;2023-02-11T05:32:18;57013.78;;;-145.60;100.00
4199;BME280;2113;50.946;14.610;2023-02-11T05:34:46;57013.78;;;-145.60;100.00
4199;BME280;2113;50.946;14.610;2023-02-11T05:37:16;57013.78;;;-145.60;100.00
4199;BME280;2113;50.946;14.610;2023-02-11T05:39:44;57013.78;;;-145.60;100.00
4199;BME280;2113;50.946;14.610;2023-02-11T05:42:13;57013.78;;;-145.60;100.00
4199;BME280;2113;50.946;14.610;2023-02-11T05:44:41;57013.78;;;-145.60;100.00
4199;BME280;2113;50.946;14.610;2023-02-11T05:47:09;57013.78;;;-145.60;100.00
4199;BME280;2113;50.946;14.610;2023-02-11T05:49:37;57013.78;;;-145.60;100.00
4199;BME280;2113;50.946;14.610;2023-02-11T05:52:05;57013.78;;;-145.60;100.00
4199;BME280;2113;50.946;14.610;2023-02-11T05:54:36;57013.78;;;-145.60;100.00
4199;BME280;2113;50.946;14.610;2023-02-11T05:57:04;57013.78;;;-145.60;100.00
4199;BME280;2113;50.946;14.610;2023-02-11T05:59:32;57013.78;;;-145.60;100.00
4199;BME280;2113;50.946;14.610;2023-02-11T06:02:00;57013.78;;;-145.60;100.00
4199;BME280;2113;50.946;14.610;2023-02-11T06:04:29;57013.78;;;-145.60;100.00
4199;BME280;2113;50.946;14.610;2023-02-11T06:06:57;57013.78;;;-145.60;100.00
4199;BME280;2113;50.946;14.610;2023-02-11T06:09:25;57013.78;;;-145.60;100.00
4199;BME280;2113;50.946;14.610;2023-02-11T06:11:55;57013.78;;;-145.60;100.00
4199;BME280;2113;50.946;14.610;2023-02-11T06:14:23;57013.78;;;-145.60;100.00
4199;BME280;2113;50.946;14.610;2023-02-11T06:16:52;57013.78;;;-145.60;100.00
4199;BME280;2113;50.946;14.610;2023-02-11T06:19:20;57013.78;;;-145.60;100.00
4199;BME280;2113;50.946;14.610;2023-02-11T06:21:49;57013.78;;;-145.60;100.00
4199;BME280;2113;50.946;14.610;2023-02-11T06:24:17;57013.78;;;-145.60;100.00
4199;BME280;2113;50.946;14.610;2023-02-11T06:27:07;57013.78;;;-145.60;100.00
4199;BME280;2113;50.946;14.610;2023-02-11T06:29:35;57013.78;;;-145.60;100.00
4199;BME280;2113;50.946;14.610;2023-02-11T06:32:03;57013.78;;;-145.60;100.00
4199;BME280;2113;50.946;14.610;2023-02-11T06:34:31;57013.78;;;-145.60;100.00
4199;BME280;2113;50.946;14.610;2023-02-11T06:37:00;57013.78;;;-145.60;100.00
4199;BME280;2113;50.946;14.610;2023-02-11T06:39:28;57013.78;;;-145.60;100.00
4199;BME280;2113;50.946;14.610;2023-02-11T06:41:56;57013.78;;;-145.60;100.00
4199;BME280;2113;50.946;14.610;2023-02-11T06:44:27;57013.78;;;-145.60;100.00
4199;BME280;2113;50.946;14.610;2023-02-11T06:46:55;57013.78;;;-145.60;100.00
4199;BME280;2113;50.946;14.610;2023-02-11T06:49:23;57013.78;;;-145.60;100.00
4199;BME280;2113;50.946;14.610;2023-02-11T06:51:51;57013.78;;;-145.60;100.00
4199;BME280;2113;50.946;14.610;2023-02-11T06:54:20;57013.78;;;-145.60;100.00
4199;BME280;2113;50.946;14.610;2023-02-11T06:56:48;57013.78;;;-145.60;100.00
4199;BME280;2113;50.946;14.610;2023-02-11T06:59:17;57013.78;;;-145.60;100.00
4199;BME280;2113;50.946;14.610;2023-02-11T07:01:47;57013.78;;;-145.60;100.00
4199;BME280;2113;50.946;14.610;2023-02-11T07:04:16;57013.78;;;-145.60;100.00
4199;BME280;2113;50.946;14.610;2023-02-11T07:06:45;57013.78;;;-145.60;100.00
4199;BME280;2113;50.946;14.610;2023-02-11T07:09:13;57013.78;;;-145.60;100.00
4199;BME280;2113;50.946;14.610;2023-02-11T07:11:41;57013.78;;;-145.60;100.00
4199;BME280;2113;50.946;14.610;2023-02-11T07:14:10;57013.78;;;-145.60;100.00
4199;BME280;2113;50.946;14.610;2023-02-11T07:16:39;57013.78;;;-145.60;100.00
4199;BME280;2113;50.946;14.610;2023-02-11T07:19:09;57013.78;;;-145.60;100.00
4199;BME280;2113;50.946;14.610;2023-02-11T07:21:38;57013.78;;;-145.60;100.00
4199;BME280;2113;50.946;14.610;2023-02-11T07:24:07;57013.78;;;-145.60;100.00
4199;BME280;2113;50.946;14.610;2023-02-11T07:26:37;57013.78;;;-145.60;100.00
4199;BME280;2113;50.946;14.610;2023-02-11T07:29:06;57013.78;;;-145.60;100.00
4199;BME280;2113;50.946;14.610;2023-02-11T07:31:34;57013.78;;;-145.60;100.00
4199;BME280;2113;50.946;14.610;2023-02-11T07:34:02;57013.78;;;-145.60;100.00
4199;BME280;2113;50.946;14.610;2023-02-11T07:36:32;57013.78;;;-145.60;100.00
4199;BME280;2113;50.946;14.610;2023-02-11T07:39:01;57013.78;;;-145.60;100.00
4199;BME280;2113;50.946;14.610;2023-02-11T07:41:30;57013.78;;;-145.60;100.00
4199;BME280;2113;50.946;14.610;2023-02-11T07:43:58;57013.78;;;-145.60;100.00
4199;BME280;2113;50.946;14.610;2023-02-11T07:46:26;57013.78;;;-145.60;100.00
4199;BME280;2113;50.946;14.610;2023-02-11T07:48:55;57013.78;;;-145.60;100.00
4199;BME280;2113;50.946;14.610;2023-02-11T07:51:25;57013.78;;;-145.60;100.00
4199;BME280;2113;50.946;14.610;2023-02-11T07:53:57;57013.78;;;-145.60;100.00
4199;BME280;2113;50.946;14.610;2023-02-11T07:56:27;57013.78;;;-145.60;100.00
4199;BME280;2113;50.946;14.610;2023-02-11T07:59:00;57013.78;;;-145.60;100.00
4199;BME280;2113;50.946;14.610;2023-02-11T08:01:29;57013.78;;;-145.60;100.00
4199;BME280;2113;50.946;14.610;2023-02-11T08:03:59;57013.78;;;-145.60;100.00
4199;BME280;2113;50.946;14.610;2023-02-11T08:06:29;57013.78;;;-145.60;100.00
4199;BME280;2113;50.946;14.610;2023-02-11T08:09:05;57013.78;;;-145.60;100.00
4199;BME280;2113;50.946;14.610;2023-02-11T08:11:35;57013.78;;;-145.60;100.00
4199;BME280;2113;50.946;14.610;2023-02-11T08:14:03;57013.78;;;-145.60;100.00
4199;BME280;2113;50.946;14.610;2023-02-11T08:16:33;57013.78;;;-145.60;100.00
4199;BME280;2113;50.946;14.610;2023-02-11T08:19:03;57013.78;;;-145.60;100.00
4199;BME280;2113;50.946;14.610;2023-02-11T08:21:33;57013.78;;;-145.60;100.00
4199;BME280;2113;50.946;14.610;2023-02-11T08:24:03;57013.78;;;-145.60;100.00
4199;BME280;2113;50.946;14.610;2023-02-11T08:26:32;57013.78;;;-145.60;100.00
4199;BME280;2113;50.946;14.610;2023-02-11T08:29:04;57013.78;;;-145.60;100.00
4199;BME280;2113;50.946;14.610;2023-02-11T08:31:35;57013.78;;;-145.60;100.00
4199;BME280;2113;50.946;14.610;2023-02-11T08:34:04;57013.78;;;-145.60;100.00
4199;BME280;2113;50.946;14.610;2023-02-11T08:36:34;57013.78;;;-145.60;100.00
4199;BME280;2113;50.946;14.610;2023-02-11T08:39:06;57013.78;;;-145.60;100.00
4199;BME280;2113;50.946;14.610;2023-02-11T08:41:46;57013.78;;;-145.60;100.00
4199;BME280;2113;50.946;14.610;2023-02-11T08:44:15;57013.78;;;-145.60;100.00
4199;BME280;2113;50.946;14.610;2023-02-11T08:46:44;57013.78;;;-145.60;100.00
4199;BME280;2113;50.946;14.610;2023-02-11T08:49:13;57013.78;;;-145.60;100.00
4199;BME280;2113;50.946;14.610;2023-02-11T08:51:41;57013.78;;;-145.60;100.00
4199;BME280;2113;50.946;14.610;2023-02-11T08:54:13;57013.78;;;-145.60;100.00
4199;BME280;2113;50.946;14.610;2023-02-11T08:56:42;57013.78;;;-145.60;100.00
4199;BME280;2113;50.946;14.610;2023-02-11T08:59:12;57013.78;;;-145.60;100.00
4199;BME280;2113;50.946;14.610;2023-02-11T09:01:43;57013.78;;;-145.60;100.00
4199;BME280;2113;50.946;14.610;2023-02-11T09:04:13;57013.78;;;-145.60;100.00
4199;BME280;2113;50.946;14.610;2023-02-11T09:06:41;57013.78;;;-145.60;100.00
4199;BME280;2113;50.946;14.610;2023-02-11T09:09:12;57013.78;;;-145.60;100.00
4199;BME280;2113;50.946;14.610;2023-02-11T09:11:42;57013.78;;;-145.60;100.00
4199;BME280;2113;50.946;14.610;2023-02-11T09:14:16;57013.78;;;-145.60;100.00
4199;BME280;2113;50.946;14.610;2023-02-11T09:16:46;57013.78;;;-145.60;100.00
4199;BME280;2113;50.946;14.610;2023-02-11T09:19:15;57013.78;;;-145.60;100.00
4199;BME280;2113;50.946;14.610;2023-02-11T09:21:43;57013.78;;;-145.60;100.00
4199;BME280;2113;50.946;14.610;2023-02-11T09:24:14;57013.78;;;-145.60;100.00
4199;BME280;2113;50.946;14.610;2023-02-11T09:26:42;57013.78;;;-145.60;100.00
4199;BME280;2113;50.946;14.610;2023-02-11T09:29:11;57013.78;;;-145.60;100.00
4199;BME280;2113;50.946;14.610;2023-02-11T09:31:39;57013.78;;;-145.60;100.00
4199;BME280;2113;50.946;14.610;2023-02-11T09:34:09;57013.78;;;-145.60;100.00
4199;BME280;2113;50.946;14.610;2023-02-11T09:36:39;57013.78;;;-145.60;100.00
4199;BME280;2113;50.946;14.610;2023-02-11T09:39:11;57013.78;;;-145.60;100.00
4199;BME280;2113;50.946;14.610;2023-02-11T09:44:43;57013.78;;;-145.60;100.00
4199;BME280;2113;50.946;14.610;2023-02-11T09:47:23;57013.78;;;-145.60;100.00
4199;BME280;2113;50.946;14.610;2023-02-11T09:49:57;57013.78;;;-145.60;100.00
4199;BME280;2113;50.946;14.610;2023-02-11T09:52:34;57013.78;;;-145.60;100.00
4199;BME280;2113;50.946;14.610;2023-02-11T09:55:14;57013.78;;;-145.60;100.00
4199;BME280;2113;50.946;14.610;2023-02-11T09:57:44;57013.78;;;-145.60;100.00
4199;BME280;2113;50.946;14.610;2023-02-11T10:00:23;57013.78;;;-145.60;100.00
4199;BME280;2113;50.946;14.610;2023-02-11T10:03:01;57013.78;;;-145.60;100.00
4199;BME280;2113;50.946;14.610;2023-02-11T10:05:43;57013.78;;;-145.60;100.00
4199;BME280;2113;50.946;14.610;2023-02-11T10:08:21;57013.78;;;-145.60;100.00
4199;BME280;2113;50.946;14.610;2023-02-11T10:10:58;57013.78;;;-145.60;100.00
4199;BME280;2113;50.946;14.610;2023-02-11T10:13:46;57013.78;;;-145.60;100.00
4199;BME280;2113;50.946;14.610;2023-02-11T10:16:44;98242.16;;;5.73;64.29
4199;BME280;2113;50.946;14.610;2023-02-11T10:19:29;98232.75;;;5.83;64.14
4199;BME280;2113;50.946;14.610;2023-02-11T10:22:07;98222.41;;;6.35;63.60
4199;BME280;2113;50.946;14.610;2023-02-11T10:24:40;98218.13;;;6.17;63.28
4199;BME280;2113;50.946;14.610;2023-02-11T10:27:14;98225.84;;;6.45;63.08
4199;BME280;2113;50.946;14.610;2023-02-11T10:29:48;98232.78;;;6.21;63.60
4199;BME280;2113;50.946;14.610;2023-02-11T10:32:31;98225.00;;;6.01;63.89
4199;BME280;2113;50.946;14.610;2023-02-11T10:35:08;98221.50;;;6.65;63.33
4199;BME280;2113;50.946;14.610;2023-02-11T10:37:38;98226.72;;;6.30;63.11
4199;BME280;2113;50.946;14.610;2023-02-11T10:40:13;98226.69;;;6.56;62.34
4199;BME280;2113;50.946;14.610;2023-02-11T10:42:45;98238.72;;;6.59;62.50
4199;BME280;2113;50.946;14.610;2023-02-11T10:45:18;98247.34;;;6.67;61.78
4199;BME280;2113;50.946;14.610;2023-02-11T10:47:51;98249.91;;;6.62;62.47
4199;BME280;2113;50.946;14.610;2023-02-11T10:50:23;98248.19;;;6.69;60.88
4199;BME280;2113;50.946;14.610;2023-02-11T10:53:10;98243.88;;;6.59;61.68
4199;BME280;2113;50.946;14.610;2023-02-11T10:55:50;98229.25;;;6.55;61.89
4199;BME280;2113;50.946;14.610;2023-02-11T10:58:25;98229.28;;;6.30;62.49
4199;BME280;2113;50.946;14.610;2023-02-11T11:00:57;98238.72;;;6.60;61.66
4199;BME280;2113;50.946;14.610;2023-02-11T11:03:30;98230.19;;;6.31;62.68
4199;BME280;2113;50.946;14.610;2023-02-11T11:06:03;98228.34;;;6.77;60.85
4199;BME280;2113;50.946;14.610;2023-02-11T11:08:39;98228.25;;;7.13;60.60
4199;BME280;2113;50.946;14.610;2023-02-11T11:11:10;98241.19;;;6.99;60.23
4199;BME280;2113;50.946;14.610;2023-02-11T11:13:40;98227.56;;;6.41;61.96
4199;BME280;2113;50.946;14.610;2023-02-11T11:16:19;98222.31;;;6.75;61.15
4199;BME280;2113;50.946;14.610;2023-02-11T11:18:51;98223.25;;;6.51;61.53
4199;BME280;2113;50.946;14.610;2023-02-11T11:21:25;98224.72;;;7.18;60.51
4199;BME280;2113;50.946;14.610;2023-02-11T11:23:55;98224.13;;;6.49;62.35
4199;BME280;2113;50.946;14.610;2023-02-11T11:26:27;98228.28;;;7.00;61.47
4199;BME280;2113;50.946;14.610;2023-02-11T11:28:59;98230.94;;;6.77;61.92
4199;BME280;2113;50.946;14.610;2023-02-11T11:31:31;98233.53;;;6.70;61.19
4199;BME280;2113;50.946;14.610;2023-02-11T11:34:16;98224.00;;;6.90;60.88
4199;BME280;2113;50.946;14.610;2023-02-11T11:36:49;98225.72;;;6.90;61.34
4199;BME280;2113;50.946;14.610;2023-02-11T11:39:21;98230.88;;;6.96;61.81
4199;BME280;2113;50.946;14.610;2023-02-11T11:41:53;98229.06;;;7.16;60.30
4199;BME280;2113;50.946;14.610;2023-02-11T11:44:27;98230.09;;;6.63;62.02
4199;BME280;2113;50.946;14.610;2023-02-11T11:47:21;98215.50;;;6.53;62.32
4199;BME280;2113;50.946;14.610;2023-02-11T11:50:08;98215.47;;;6.50;62.97
4199;BME280;2113;50.946;14.610;2023-02-11T11:52:42;98218.97;;;6.38;63.04
4199;BME280;2113;50.946;14.610;2023-02-11T11:55:16;98216.31;;;6.75;61.35
4199;BME280;2113;50.946;14.610;2023-02-11T11:57:46;98223.91;;;7.13;61.22
4199;BME280;2113;50.946;14.610;2023-02-11T12:00:18;98220.66;;;6.65;61.79
4199;BME280;2113;50.946;14.610;2023-02-11T12:06:13;98220.59;;;6.77;61.88
4199;BME280;2113;50.946;14.610;2023-02-11T12:08:53;98237.78;;;6.94;61.40
4199;BME280;2113;50.946;14.610;2023-02-11T12:11:31;98231.75;;;6.89;61.47
4199;BME280;2113;50.946;14.610;2023-02-11T12:14:13;98230.75;;;7.23;61.33
4199;BME280;2113;50.946;14.610;2023-02-11T12:16:54;98233.44;;;7.03;61.99
4199;BME280;2113;50.946;14.610;2023-02-11T12:19:53;98235.94;;;7.27;61.43
4199;BME280;2113;50.946;14.610;2023-02-11T12:22:39;98228.88;;;7.50;61.16
4199;BME280;2113;50.946;14.610;2023-02-11T12:25:21;98226.13;;;7.76;60.71
4199;BME280;2113;50.946;14.610;2023-02-11T12:27:58;98221.94;;;7.58;61.48
4199;BME280;2113;50.946;14.610;2023-02-11T12:30:38;98222.84;;;7.50;60.90
4199;BME280;2113;50.946;14.610;2023-02-11T12:33:16;98223.91;;;7.10;62.27
4199;BME280;2113;50.946;14.610;2023-02-11T12:35:55;98224.63;;;7.41;62.25
4199;BME280;2113;50.946;14.610;2023-02-11T12:38:42;98209.13;;;7.37;62.37
4199;BME280;2113;50.946;14.610;2023-02-11T12:41:24;98218.75;;;7.12;62.41
4199;BME280;2113;50.946;14.610;2023-02-11T12:44:17;98212.84;;;6.80;63.47
4199;BME280;2113;50.946;14.610;2023-02-11T12:46:56;98202.50;;;6.76;64.35
4199;BME280;2113;50.946;14.610;2023-02-11T12:49:48;98193.00;;;6.76;64.28
4199;BME280;2113;50.946;14.610;2023-02-11T12:52:29;98198.22;;;6.70;64.01
4199;BME280;2113;50.946;14.610;2023-02-11T12:55:09;98199.75;;;7.20;62.79
4199;BME280;2113;50.946;14.610;2023-02-11T12:57:45;98198.13;;;6.96;64.17
4199;BME280;2113;50.946;14.610;2023-02-11T13:00:16;98196.41;;;6.94;63.22
4199;BME280;2113;50.946;14.610;2023-02-11T13:02:53;98185.25;;;6.82;64.16
4199;BME280;2113;50.946;14.610;2023-02-11T13:05:26;98182.78;;;6.42;65.77
4199;BME280;2113;50.946;14.610;2023-02-11T13:08:02;98189.63;;;6.65;65.00
4199;BME280;2113;50.946;14.610;2023-02-11T13:10:35;98183.47;;;7.00;63.93
4199;BME280;2113;50.946;14.610;2023-02-11T13:13:12;98190.22;;;7.25;63.36
4199;BME280;2113;50.946;14.610;2023-02-11T13:15:51;98182.56;;;7.01;64.22
4199;BME280;2113;50.946;14.610;2023-02-11T13:18:31;98186.06;;;6.91;64.68
4199;BME280;2113;50.946;14.610;2023-02-11T13:21:18;98181.81;;;6.79;64.43
4199;BME280;2113;50.946;14.610;2023-02-11T13:23:54;98186.97;;;6.83;65.42
4199;BME280;2113;50.946;14.610;2023-02-11T13:26:31;98189.50;;;6.96;65.15
4199;BME280;2113;50.946;14.610;2023-02-11T13:29:12;98191.13;;;7.15;64.87
4199;BME280;2113;50.946;14.610;2023-02-11T13:31:51;98190.34;;;7.04;65.11